Darstellungsparameter: Aktuell verwendete Einstellungen:
Skalierung der Graphiken ... ?
xyx+y,   Skalierungsfaktor:      Skalierung: Modus: x, Faktor: 1
Darstellungszeitraum ... ?
Vom - - bis: - -   Zeitraum: 10.07.2020 - 10.07.2020
Min/Max/Avg-Anzeige ... ?
Zeige MMA aktuell
Zeige MMA Monat
Zeige MMA alles
Zeige --A aktuell
Zeige --A Monat
Zeige --A alles
Keine MMA-Anzeige
MMA:
Keine MMA-Graphiken
MMA-Basis: 10.07.2020 - 10.07.2020
Quicknavigation für Darstellung... ?
Tage:      1T, 2T, 3T, 5T -1T -2T -3T -5T +1T +2T +3T +5T
Wochen: 1W, 2W, 3W -1W -2W -3W +1W +2W +3W
Monate: 1M, 3M, 6M -1M -3M -6M +1M +3M +6M
Jahre:    1J, 3J, 5J, 10J -1J -3J -5J -10J +1J +3J +5J +10J
Nutze für die Darstellung ... ?
Originaldaten oder Mittelwerte auf ...
Stundenbasis Tagesbasis Wochenbasis
Monatsbasis Jahresbasis      Datenbasis: Original-Daten
Darstellen als:
Statistik (Auto) Statistik J:M      Darstellung:
Zur Graphik,    zurück zur Übersicht aller Sensoren.
 
Tabellarische Datenbersicht: ?
 
Sensor: Nr:Datum:Temp:Feuchte:
Aussen-T/F 1 10-07-2020 02:09:17 16.6 C 39 %
2 10-07-2020 02:19:17 16.5 C 39 %
3 10-07-2020 02:29:17 16.4 C 39 %
4 10-07-2020 02:39:17 16.2 C 39 %
5 10-07-2020 02:49:17 16.4 C 39 %
6 10-07-2020 02:59:17 16.4 C 39 %
7 10-07-2020 03:09:17 16.4 C 39 %
8 10-07-2020 03:19:17 16.5 C 38 %
9 10-07-2020 03:29:17 16.4 C 38 %
10 10-07-2020 03:39:18 16.3 C 39 %
11 10-07-2020 03:49:17 16.2 C 39 %
12 10-07-2020 03:59:17 16 C 39 %
13 10-07-2020 04:09:18 15.8 C 40 %
14 10-07-2020 04:19:17 15.6 C 40 %
15 10-07-2020 04:29:17 15.6 C 40 %
16 10-07-2020 04:39:17 16 C 39 %
17 10-07-2020 04:49:17 16.3 C 39 %
18 10-07-2020 04:59:17 16.2 C 39 %
19 10-07-2020 05:09:17 16.1 C 38 %
20 10-07-2020 05:19:17 16.2 C 38 %
21 10-07-2020 05:29:17 16.4 C 38 %
22 10-07-2020 05:39:17 16.3 C 37 %
23 10-07-2020 05:49:17 16.1 C 38 %
24 10-07-2020 05:59:17 16.3 C 37 %
25 10-07-2020 06:09:17 16.2 C 38 %
Sensor: Nr:Datum:Temp:Feuchte:
Aussen-T/F 26 10-07-2020 06:19:17 16.5 C 38 %
27 10-07-2020 06:29:17 16.7 C 37 %
28 10-07-2020 06:39:17 16.8 C 37 %
29 10-07-2020 06:49:17 16.8 C 37 %
30 10-07-2020 06:59:17 17 C 36 %
31 10-07-2020 07:09:17 17.2 C 36 %
32 10-07-2020 07:19:17 17.5 C 36 %
33 10-07-2020 07:29:17 17.9 C 36 %
34 10-07-2020 07:39:17 18.4 C 35 %
35 10-07-2020 07:49:17 18.8 C 35 %
36 10-07-2020 07:59:17 19.1 C 34 %
37 10-07-2020 08:09:17 19.2 C 33 %
38 10-07-2020 08:19:17 19.4 C 33 %
39 10-07-2020 08:29:18 20.1 C 32 %
40 10-07-2020 08:39:18 20.3 C 32 %
41 10-07-2020 08:49:18 20.8 C 31 %
42 10-07-2020 08:59:18 20.7 C 31 %
43 10-07-2020 09:09:18 20.7 C 31 %
44 10-07-2020 09:19:18 20.6 C 31 %
45 10-07-2020 09:29:18 21 C 30 %
46 10-07-2020 09:39:18 21 C 30 %
47 10-07-2020 09:49:17 21.1 C 30 %
48 10-07-2020 09:59:17 21.2 C 30 %
49 10-07-2020 10:09:18 20.9 C 31 %
50 10-07-2020 10:19:17 21.3 C 29 %
Sensor: Nr:Datum:Temp:Feuchte:
Aussen-T/F 51 10-07-2020 10:29:18 21.6 C 28 %
52 10-07-2020 10:39:18 21.6 C 28 %
53 10-07-2020 10:49:17 21.7 C 28 %
54 10-07-2020 10:59:17 22.4 C 27 %
55 10-07-2020 11:09:18 22.3 C 26 %
56 10-07-2020 11:19:17 22 C 26 %
57 10-07-2020 11:29:17 22.3 C 26 %
58 10-07-2020 11:39:18 22.8 C 26 %
59 10-07-2020 11:49:17 23.7 C 25 %
60 10-07-2020 11:59:17 24.3 C 24 %
61 10-07-2020 12:09:17 23.6 C 25 %
62 10-07-2020 12:19:17 22.3 C 25 %
63 10-07-2020 12:29:17 22.7 C 25 %
64 10-07-2020 12:39:17 22.9 C 25 %
65 10-07-2020 12:49:17 22.6 C 25 %
66 10-07-2020 12:59:17 22.6 C 25 %
67 10-07-2020 13:09:18 22.9 C 25 %
68 10-07-2020 13:19:17 22 C 26 %
69 10-07-2020 13:29:17 20.8 C 27 %
70 10-07-2020 13:39:18 21.3 C 26 %
71 10-07-2020 13:49:17 21.5 C 26 %
72 10-07-2020 13:59:17 21.2 C 26 %
73 10-07-2020 14:09:18 22.6 C 25 %
74 10-07-2020 14:19:17 21.8 C 26 %
75 10-07-2020 14:29:17 21.3 C 26 %
Sensor: Nr:Datum:Temp:Feuchte:
Aussen-T/F 76 10-07-2020 14:39:17 21.5 C 26 %
77 10-07-2020 14:49:17 21.2 C 26 %
78 10-07-2020 14:59:17 21.4 C 26 %
79 10-07-2020 15:09:17 20.6 C 28 %
80 10-07-2020 15:19:17 17.3 C 35 %
81 10-07-2020 15:29:17 17.1 C 37 %
82 10-07-2020 15:39:18 17.6 C 38 %
83 10-07-2020 15:49:17 17.7 C 37 %
84 10-07-2020 15:59:17 17.9 C 38 %
85 10-07-2020 16:09:18 18.4 C 37 %
86 10-07-2020 16:19:18 18.3 C 38 %
87 10-07-2020 16:29:18 18 C 37 %
88 10-07-2020 16:39:17 17.6 C 39 %
89 10-07-2020 16:49:17 17.2 C 40 %
90 10-07-2020 16:59:17 16.8 C 41 %
91 10-07-2020 17:09:17 17.4 C 41 %
92 10-07-2020 17:19:17 17.7 C 39 %
93 10-07-2020 17:29:17 18.9 C 37 %
94 10-07-2020 17:39:17 19.6 C 36 %
95 10-07-2020 17:49:17 19.9 C 36 %
96 10-07-2020 17:59:17 23.2 C 26 %
97 10-07-2020 18:09:17 20.6 C 28 %
98 10-07-2020 18:19:17 18.9 C 30 %
99 10-07-2020 18:29:17 19 C 30 %
100 10-07-2020 18:39:17 19.6 C 29 %
Sensor: Nr:Datum:Temp:Feuchte:
Aussen-T/F 101 10-07-2020 18:49:17 20.4 C 28 %
102 10-07-2020 18:59:17 20.5 C 28 %
103 10-07-2020 19:09:17 19.8 C 29 %
104 10-07-2020 19:19:17 20 C 28 %
105 10-07-2020 19:29:17 19.8 C 29 %
106 10-07-2020 19:39:17 19.3 C 29 %
107 10-07-2020 19:49:17 18.9 C 30 %
108 10-07-2020 19:59:17 18.9 C 30 %
109 10-07-2020 20:09:17 19.3 C 29 %
110 10-07-2020 20:19:17 18.7 C 30 %
111 10-07-2020 20:29:17 18.3 C 30 %
112 10-07-2020 20:39:18 18.3 C 30 %
113 10-07-2020 20:49:17 18.2 C 30 %
114 10-07-2020 20:59:17 18 C 30 %
115 10-07-2020 21:09:17 17.9 C 30 %
116 10-07-2020 21:19:17 17.8 C 30 %
117 10-07-2020 21:29:17 17.7 C 30 %
118 10-07-2020 21:39:17 17.5 C 30 %
119 10-07-2020 21:49:17 17.5 C 30 %
120 10-07-2020 21:59:17 17.2 C 31 %
121 10-07-2020 22:09:17 17.3 C 31 %
122 10-07-2020 22:19:17 17.2 C 30 %
123 10-07-2020 22:29:17 17 C 30 %
124 10-07-2020 22:39:17 16.8 C 31 %
125 10-07-2020 22:49:17 16.7 C 31 %
Sensor: Nr:Datum:Temp:Feuchte:
Aussen-T/F 126 10-07-2020 22:59:17 16.6 C 31 %
127 10-07-2020 23:09:17 16.5 C 31 %
128 10-07-2020 23:19:17 16.4 C 31 %
129 10-07-2020 23:29:17 16.3 C 31 %
130 10-07-2020 23:39:17 16 C 31 %
131 10-07-2020 23:49:17 16 C 32 %
132 10-07-2020 23:59:17 15.6 C 33 %
Sensor: Nr:Datum:Temp:Feuchte:

Legende:
   Min
   Max


Maximal/Minimal-Werte vom 10.07.2020 - 10.07.2020

Sensor Min Max Avg
Temp
(Aussen-T/F)
15.6 °C
10-07-2020  04:19:17
24.3 °C
10-07-2020  11:59:17
18.86 °C
Feuchte
(Aussen-T/F)
24 %
10-07-2020  11:59:17
41 %
10-07-2020  16:59:17
32.3 %
Temp
(G-T/H)
°C
-- 
°C 0 °C
Feuchte
(G-T/H)
%
-- 
% 0 %

Die Daten stammen von einer Davis Vantage Pro 2 Wetter-Station und werden unter Linux mit der Software wview2wettercgi und aufbereitet. Alle Angaben erfolgen ohne Gewähr für ihre Vollständigkeit oder Richtigkeit.
Kontakt: Rainer Krienke krienke@uni-koblenz.de . Meine Webseiten an der Uni Koblenz oder privat.
Version: $Revision: 0.78 $